sensor_id;sensor_type;location;lat;lon;timestamp;pressure;altitude;pressure_sealevel;temperature;humidity
12471;BME280;36499;46.484;13.832;2023-10-31T00:01:38;91663.97;;;12.46;100.00
12471;BME280;36499;46.484;13.832;2023-10-31T00:04:05;91701.72;;;12.55;100.00
12471;BME280;36499;46.484;13.832;2023-10-31T00:06:33;91698.31;;;12.54;100.00
12471;BME280;36499;46.484;13.832;2023-10-31T00:09:00;91729.22;;;12.51;100.00
12471;BME280;36499;46.484;13.832;2023-10-31T00:11:27;91704.44;;;12.25;100.00
12471;BME280;36499;46.484;13.832;2023-10-31T00:13:54;91737.97;;;12.33;100.00
12471;BME280;36499;46.484;13.832;2023-10-31T00:16:20;91721.31;;;12.34;100.00
12471;BME280;36499;46.484;13.832;2023-10-31T00:18:47;91730.72;;;12.35;100.00
12471;BME280;36499;46.484;13.832;2023-10-31T00:21:13;91732.50;;;12.46;100.00
12471;BME280;36499;46.484;13.832;2023-10-31T00:23:45;91744.75;;;12.46;100.00
12471;BME280;36499;46.484;13.832;2023-10-31T00:26:12;91712.34;;;12.42;100.00
12471;BME280;36499;46.484;13.832;2023-10-31T00:28:38;91700.72;;;12.33;100.00
12471;BME280;36499;46.484;13.832;2023-10-31T00:31:05;91654.28;;;12.29;100.00
12471;BME280;36499;46.484;13.832;2023-10-31T00:33:33;91669.44;;;12.09;100.00
12471;BME280;36499;46.484;13.832;2023-10-31T00:36:00;91707.13;;;12.07;100.00
12471;BME280;36499;46.484;13.832;2023-10-31T00:38:26;91684.72;;;12.17;100.00
12471;BME280;36499;46.484;13.832;2023-10-31T00:40:54;91693.34;;;12.29;100.00
12471;BME280;36499;46.484;13.832;2023-10-31T00:43:22;91710.88;;;12.22;100.00
12471;BME280;36499;46.484;13.832;2023-10-31T00:45:48;91712.47;;;12.23;100.00
12471;BME280;36499;46.484;13.832;2023-10-31T00:48:15;91702.41;;;12.27;100.00
12471;BME280;36499;46.484;13.832;2023-10-31T00:50:42;91696.84;;;12.12;100.00
12471;BME280;36499;46.484;13.832;2023-10-31T00:53:09;91684.03;;;12.10;100.00
12471;BME280;36499;46.484;13.832;2023-10-31T00:55:36;91679.19;;;12.14;100.00
12471;BME280;36499;46.484;13.832;2023-10-31T00:58:04;91682.00;;;12.24;100.00
12471;BME280;36499;46.484;13.832;2023-10-31T01:00:30;91660.72;;;12.15;100.00
12471;BME280;36499;46.484;13.832;2023-10-31T01:02:59;91617.59;;;12.08;100.00
12471;BME280;36499;46.484;13.832;2023-10-31T01:05:26;91666.41;;;12.01;100.00
12471;BME280;36499;46.484;13.832;2023-10-31T01:07:53;91597.22;;;11.93;100.00
12471;BME280;36499;46.484;13.832;2023-10-31T01:10:20;91629.13;;;11.77;100.00
12471;BME280;36499;46.484;13.832;2023-10-31T01:12:47;91671.00;;;11.64;100.00
12471;BME280;36499;46.484;13.832;2023-10-31T01:15:16;91660.34;;;11.65;100.00
12471;BME280;36499;46.484;13.832;2023-10-31T01:17:43;91655.16;;;11.65;100.00
12471;BME280;36499;46.484;13.832;2023-10-31T01:20:10;91653.34;;;11.66;100.00
12471;BME280;36499;46.484;13.832;2023-10-31T01:22:37;91650.63;;;11.72;100.00
12471;BME280;36499;46.484;13.832;2023-10-31T01:25:04;91619.53;;;11.66;100.00
12471;BME280;36499;46.484;13.832;2023-10-31T01:27:31;91643.16;;;11.64;100.00
12471;BME280;36499;46.484;13.832;2023-10-31T01:29:57;91637.50;;;11.67;100.00
12471;BME280;36499;46.484;13.832;2023-10-31T01:32:25;91619.38;;;11.72;100.00
12471;BME280;36499;46.484;13.832;2023-10-31T01:34:52;91600.84;;;11.69;100.00
12471;BME280;36499;46.484;13.832;2023-10-31T01:37:19;91598.13;;;11.64;100.00
12471;BME280;36499;46.484;13.832;2023-10-31T01:39:46;91577.53;;;11.62;100.00
12471;BME280;36499;46.484;13.832;2023-10-31T01:42:14;91529.22;;;11.43;100.00
12471;BME280;36499;46.484;13.832;2023-10-31T01:44:41;91552.94;;;11.35;100.00
12471;BME280;36499;46.484;13.832;2023-10-31T01:47:08;91567.22;;;11.44;100.00
12471;BME280;36499;46.484;13.832;2023-10-31T01:49:36;91602.41;;;11.58;100.00
12471;BME280;36499;46.484;13.832;2023-10-31T01:52:03;91612.94;;;11.51;100.00
12471;BME280;36499;46.484;13.832;2023-10-31T01:54:32;91562.38;;;11.71;100.00
12471;BME280;36499;46.484;13.832;2023-10-31T01:56:59;91568.94;;;11.61;100.00
12471;BME280;36499;46.484;13.832;2023-10-31T01:59:26;91578.91;;;11.65;100.00
12471;BME280;36499;46.484;13.832;2023-10-31T02:01:54;91578.00;;;11.71;100.00
12471;BME280;36499;46.484;13.832;2023-10-31T02:04:21;91582.97;;;11.72;100.00
12471;BME280;36499;46.484;13.832;2023-10-31T02:06:49;91598.69;;;11.77;100.00
12471;BME280;36499;46.484;13.832;2023-10-31T02:09:16;91561.47;;;11.77;100.00
12471;BME280;36499;46.484;13.832;2023-10-31T02:11:42;91575.59;;;11.81;100.00
12471;BME280;36499;46.484;13.832;2023-10-31T02:14:09;91595.28;;;11.77;100.00
12471;BME280;36499;46.484;13.832;2023-10-31T02:16:36;91591.66;;;11.78;100.00
12471;BME280;36499;46.484;13.832;2023-10-31T02:19:03;91593.16;;;11.85;100.00
12471;BME280;36499;46.484;13.832;2023-10-31T02:21:30;91599.25;;;11.91;100.00
12471;BME280;36499;46.484;13.832;2023-10-31T02:24:00;91609.34;;;11.87;100.00
12471;BME280;36499;46.484;13.832;2023-10-31T02:26:30;91607.31;;;12.01;100.00
12471;BME280;36499;46.484;13.832;2023-10-31T02:28:57;91618.28;;;12.03;100.00
12471;BME280;36499;46.484;13.832;2023-10-31T02:31:24;91614.31;;;12.01;100.00
12471;BME280;36499;46.484;13.832;2023-10-31T02:33:50;91602.19;;;12.06;100.00
12471;BME280;36499;46.484;13.832;2023-10-31T02:36:17;91628.13;;;12.01;100.00
12471;BME280;36499;46.484;13.832;2023-10-31T02:38:44;91612.94;;;12.10;100.00
12471;BME280;36499;46.484;13.832;2023-10-31T02:41:13;91591.47;;;12.03;100.00
12471;BME280;36499;46.484;13.832;2023-10-31T02:43:40;91618.50;;;11.78;100.00
12471;BME280;36499;46.484;13.832;2023-10-31T02:46:07;91644.06;;;11.81;100.00
12471;BME280;36499;46.484;13.832;2023-10-31T02:48:33;91621.44;;;11.82;100.00
12471;BME280;36499;46.484;13.832;2023-10-31T02:51:04;91610.03;;;11.94;100.00
12471;BME280;36499;46.484;13.832;2023-10-31T02:53:31;91632.09;;;11.92;100.00
12471;BME280;36499;46.484;13.832;2023-10-31T02:55:58;91626.44;;;11.95;100.00
12471;BME280;36499;46.484;13.832;2023-10-31T02:58:26;91633.34;;;12.01;100.00
12471;BME280;36499;46.484;13.832;2023-10-31T03:00:52;91623.38;;;11.98;100.00
12471;BME280;36499;46.484;13.832;2023-10-31T03:03:19;91616.25;;;12.05;100.00
12471;BME280;36499;46.484;13.832;2023-10-31T03:05:45;91642.81;;;12.07;100.00
12471;BME280;36499;46.484;13.832;2023-10-31T03:08:12;91648.28;;;12.17;100.00
12471;BME280;36499;46.484;13.832;2023-10-31T03:10:41;91643.84;;;12.18;100.00
12471;BME280;36499;46.484;13.832;2023-10-31T03:13:08;91629.69;;;12.14;100.00
12471;BME280;36499;46.484;13.832;2023-10-31T03:15:36;91659.47;;;12.06;100.00
12471;BME280;36499;46.484;13.832;2023-10-31T03:18:02;91660.94;;;11.79;100.00
12471;BME280;36499;46.484;13.832;2023-10-31T03:20:29;91672.28;;;11.96;100.00
12471;BME280;36499;46.484;13.832;2023-10-31T03:22:56;91653.16;;;12.02;100.00
12471;BME280;36499;46.484;13.832;2023-10-31T03:25:23;91657.13;;;12.05;100.00
12471;BME280;36499;46.484;13.832;2023-10-31T03:27:49;91652.47;;;12.18;100.00
12471;BME280;36499;46.484;13.832;2023-10-31T03:30:16;91662.53;;;12.15;100.00
12471;BME280;36499;46.484;13.832;2023-10-31T03:32:44;91646.47;;;12.29;100.00
12471;BME280;36499;46.484;13.832;2023-10-31T03:35:10;91655.50;;;12.15;100.00
12471;BME280;36499;46.484;13.832;2023-10-31T03:37:37;91642.97;;;12.01;100.00
12471;BME280;36499;46.484;13.832;2023-10-31T03:40:07;91635.28;;;12.06;100.00
12471;BME280;36499;46.484;13.832;2023-10-31T03:42:34;91656.56;;;12.03;100.00
12471;BME280;36499;46.484;13.832;2023-10-31T03:45:01;91634.91;;;11.90;100.00
12471;BME280;36499;46.484;13.832;2023-10-31T03:47:28;91651.44;;;11.96;100.00
12471;BME280;36499;46.484;13.832;2023-10-31T03:49:55;91666.16;;;12.14;100.00
12471;BME280;36499;46.484;13.832;2023-10-31T03:52:22;91633.78;;;12.10;100.00
12471;BME280;36499;46.484;13.832;2023-10-31T03:54:49;91652.78;;;11.87;100.00
12471;BME280;36499;46.484;13.832;2023-10-31T03:57:15;91659.13;;;11.68;100.00
12471;BME280;36499;46.484;13.832;2023-10-31T03:59:42;91649.72;;;11.78;100.00
12471;BME280;36499;46.484;13.832;2023-10-31T04:02:08;91649.84;;;11.83;100.00
12471;BME280;36499;46.484;13.832;2023-10-31T04:04:35;91638.31;;;12.03;100.00
12471;BME280;36499;46.484;13.832;2023-10-31T04:07:03;91649.63;;;12.08;100.00
12471;BME280;36499;46.484;13.832;2023-10-31T04:09:30;91624.50;;;12.02;100.00
12471;BME280;36499;46.484;13.832;2023-10-31T04:11:56;91632.41;;;12.07;100.00
12471;BME280;36499;46.484;13.832;2023-10-31T04:14:23;91651.78;;;12.11;100.00
12471;BME280;36499;46.484;13.832;2023-10-31T04:16:50;91668.53;;;12.15;100.00
12471;BME280;36499;46.484;13.832;2023-10-31T04:19:16;91626.06;;;12.15;100.00
12471;BME280;36499;46.484;13.832;2023-10-31T04:21:43;91638.19;;;11.86;100.00
12471;BME280;36499;46.484;13.832;2023-10-31T04:24:11;91616.56;;;11.85;100.00
12471;BME280;36499;46.484;13.832;2023-10-31T04:26:39;91639.00;;;11.86;100.00
12471;BME280;36499;46.484;13.832;2023-10-31T04:29:06;91648.06;;;11.95;100.00
12471;BME280;36499;46.484;13.832;2023-10-31T04:31:33;91653.13;;;11.90;100.00
12471;BME280;36499;46.484;13.832;2023-10-31T04:33:59;91644.78;;;12.00;100.00
12471;BME280;36499;46.484;13.832;2023-10-31T04:36:26;91655.63;;;11.97;100.00
12471;BME280;36499;46.484;13.832;2023-10-31T04:38:53;91670.13;;;11.93;100.00
12471;BME280;36499;46.484;13.832;2023-10-31T04:41:21;91649.53;;;12.03;100.00
12471;BME280;36499;46.484;13.832;2023-10-31T04:43:48;91648.28;;;12.06;100.00
12471;BME280;36499;46.484;13.832;2023-10-31T04:46:15;91642.50;;;12.04;100.00
12471;BME280;36499;46.484;13.832;2023-10-31T04:48:41;91618.50;;;12.13;100.00
12471;BME280;36499;46.484;13.832;2023-10-31T04:51:08;91629.81;;;12.19;100.00
12471;BME280;36499;46.484;13.832;2023-10-31T04:53:35;91637.97;;;12.11;100.00
12471;BME280;36499;46.484;13.832;2023-10-31T04:56:02;91642.63;;;11.97;100.00
12471;BME280;36499;46.484;13.832;2023-10-31T04:58:30;91627.69;;;11.92;100.00
12471;BME280;36499;46.484;13.832;2023-10-31T05:00:56;91639.00;;;11.98;100.00
12471;BME280;36499;46.484;13.832;2023-10-31T05:03:23;91623.50;;;11.91;100.00
12471;BME280;36499;46.484;13.832;2023-10-31T05:05:50;91622.34;;;11.87;100.00
12471;BME280;36499;46.484;13.832;2023-10-31T05:08:16;91619.06;;;11.80;100.00
12471;BME280;36499;46.484;13.832;2023-10-31T05:10:43;91618.16;;;11.86;100.00
12471;BME280;36499;46.484;13.832;2023-10-31T05:13:09;91614.22;;;11.95;100.00
12471;BME280;36499;46.484;13.832;2023-10-31T05:15:37;91630.41;;;11.98;100.00
12471;BME280;36499;46.484;13.832;2023-10-31T05:18:04;91619.06;;;11.80;100.00
12471;BME280;36499;46.484;13.832;2023-10-31T05:20:31;91604.03;;;11.71;100.00
12471;BME280;36499;46.484;13.832;2023-10-31T05:22:57;91610.81;;;11.83;100.00
12471;BME280;36499;46.484;13.832;2023-10-31T05:25:24;91606.06;;;11.92;100.00
12471;BME280;36499;46.484;13.832;2023-10-31T05:27:51;91613.75;;;11.87;100.00
12471;BME280;36499;46.484;13.832;2023-10-31T05:30:17;91603.56;;;11.97;100.00
12471;BME280;36499;46.484;13.832;2023-10-31T05:32:46;91601.97;;;12.08;100.00
12471;BME280;36499;46.484;13.832;2023-10-31T05:35:13;91601.41;;;12.06;100.00
12471;BME280;36499;46.484;13.832;2023-10-31T05:37:39;91595.88;;;12.02;100.00
12471;BME280;36499;46.484;13.832;2023-10-31T05:40:07;91604.69;;;12.01;100.00
12471;BME280;36499;46.484;13.832;2023-10-31T05:42:34;91606.50;;;12.01;100.00
12471;BME280;36499;46.484;13.832;2023-10-31T05:45:00;91607.66;;;11.93;100.00
12471;BME280;36499;46.484;13.832;2023-10-31T05:47:27;91605.38;;;11.97;100.00
12471;BME280;36499;46.484;13.832;2023-10-31T05:49:55;91610.13;;;11.88;100.00
12471;BME280;36499;46.484;13.832;2023-10-31T05:52:22;91625.75;;;11.88;100.00
12471;BME280;36499;46.484;13.832;2023-10-31T05:54:49;91634.56;;;11.87;100.00
12471;BME280;36499;46.484;13.832;2023-10-31T05:57:15;91628.09;;;11.78;100.00
12471;BME280;36499;46.484;13.832;2023-10-31T05:59:42;91624.25;;;11.80;100.00
12471;BME280;36499;46.484;13.832;2023-10-31T06:02:09;91626.53;;;11.88;100.00
12471;BME280;36499;46.484;13.832;2023-10-31T06:04:35;91609.22;;;11.71;100.00
12471;BME280;36499;46.484;13.832;2023-10-31T06:07:04;91597.91;;;11.77;100.00
12471;BME280;36499;46.484;13.832;2023-10-31T06:09:30;91606.28;;;11.79;100.00
12471;BME280;36499;46.484;13.832;2023-10-31T06:11:58;91615.78;;;11.85;100.00
12471;BME280;36499;46.484;13.832;2023-10-31T06:14:25;91605.94;;;11.87;100.00
12471;BME280;36499;46.484;13.832;2023-10-31T06:16:52;91599.94;;;11.98;100.00
12471;BME280;36499;46.484;13.832;2023-10-31T06:19:19;91589.31;;;11.88;100.00
12471;BME280;36499;46.484;13.832;2023-10-31T06:21:46;91586.69;;;11.88;100.00
12471;BME280;36499;46.484;13.832;2023-10-31T06:24:14;91602.00;;;11.96;100.00
12471;BME280;36499;46.484;13.832;2023-10-31T06:26:41;91624.19;;;11.99;100.00
12471;BME280;36499;46.484;13.832;2023-10-31T06:29:07;91611.91;;;12.22;100.00
12471;BME280;36499;46.484;13.832;2023-10-31T06:31:34;91644.53;;;12.37;100.00
12471;BME280;36499;46.484;13.832;2023-10-31T06:34:01;91680.78;;;12.03;100.00
12471;BME280;36499;46.484;13.832;2023-10-31T06:36:28;91674.19;;;11.89;100.00
12471;BME280;36499;46.484;13.832;2023-10-31T06:38:54;91666.59;;;11.87;100.00
12471;BME280;36499;46.484;13.832;2023-10-31T06:41:23;91680.84;;;11.85;100.00
12471;BME280;36499;46.484;13.832;2023-10-31T06:43:49;91689.22;;;11.75;100.00
12471;BME280;36499;46.484;13.832;2023-10-31T06:46:16;91692.34;;;11.54;100.00
12471;BME280;36499;46.484;13.832;2023-10-31T06:48:42;91686.34;;;11.53;100.00
12471;BME280;36499;46.484;13.832;2023-10-31T06:51:09;91689.59;;;11.49;100.00
12471;BME280;36499;46.484;13.832;2023-10-31T06:53:36;91672.44;;;11.59;100.00
12471;BME280;36499;46.484;13.832;2023-10-31T06:56:03;91659.44;;;11.59;100.00
12471;BME280;36499;46.484;13.832;2023-10-31T06:58:31;91647.78;;;11.74;100.00
12471;BME280;36499;46.484;13.832;2023-10-31T07:00:57;91669.31;;;11.81;100.00
12471;BME280;36499;46.484;13.832;2023-10-31T07:03:25;91686.03;;;11.73;100.00
12471;BME280;36499;46.484;13.832;2023-10-31T07:05:54;91687.19;;;11.89;100.00
12471;BME280;36499;46.484;13.832;2023-10-31T07:08:22;91693.56;;;11.93;100.00
12471;BME280;36499;46.484;13.832;2023-10-31T07:10:48;91690.84;;;12.00;100.00
12471;BME280;36499;46.484;13.832;2023-10-31T07:13:15;91668.44;;;11.99;100.00
12471;BME280;36499;46.484;13.832;2023-10-31T07:15:44;91672.81;;;11.86;100.00
12471;BME280;36499;46.484;13.832;2023-10-31T07:18:12;91665.00;;;11.86;100.00
12471;BME280;36499;46.484;13.832;2023-10-31T07:20:38;91652.09;;;11.68;100.00
12471;BME280;36499;46.484;13.832;2023-10-31T07:23:05;91642.00;;;11.72;100.00
12471;BME280;36499;46.484;13.832;2023-10-31T07:25:31;91651.66;;;11.71;100.00
12471;BME280;36499;46.484;13.832;2023-10-31T07:27:58;91645.53;;;11.66;100.00
12471;BME280;36499;46.484;13.832;2023-10-31T07:30:25;91655.50;;;11.69;100.00
12471;BME280;36499;46.484;13.832;2023-10-31T07:32:53;91639.66;;;11.70;100.00
12471;BME280;36499;46.484;13.832;2023-10-31T07:35:20;91653.97;;;11.49;100.00
12471;BME280;36499;46.484;13.832;2023-10-31T07:37:46;91639.53;;;11.65;100.00
12471;BME280;36499;46.484;13.832;2023-10-31T07:40:14;91626.06;;;11.80;100.00
12471;BME280;36499;46.484;13.832;2023-10-31T07:42:40;91620.31;;;11.66;100.00
12471;BME280;36499;46.484;13.832;2023-10-31T07:45:08;91629.47;;;11.69;100.00
12471;BME280;36499;46.484;13.832;2023-10-31T07:47:35;91646.09;;;11.56;100.00
12471;BME280;36499;46.484;13.832;2023-10-31T07:50:04;91647.69;;;11.80;100.00
12471;BME280;36499;46.484;13.832;2023-10-31T07:52:31;91631.50;;;11.67;100.00
12471;BME280;36499;46.484;13.832;2023-10-31T07:54:57;91575.94;;;11.49;100.00
12471;BME280;36499;46.484;13.832;2023-10-31T07:57:24;91550.81;;;11.43;100.00
12471;BME280;36499;46.484;13.832;2023-10-31T07:59:51;91578.09;;;11.52;100.00
12471;BME280;36499;46.484;13.832;2023-10-31T08:02:17;91573.78;;;11.46;100.00
12471;BME280;36499;46.484;13.832;2023-10-31T08:04:44;91568.59;;;11.58;100.00
12471;BME280;36499;46.484;13.832;2023-10-31T08:07:12;91542.81;;;11.68;100.00
12471;BME280;36499;46.484;13.832;2023-10-31T08:09:38;91598.69;;;11.66;100.00
12471;BME280;36499;46.484;13.832;2023-10-31T08:12:05;91569.97;;;11.60;100.00
12471;BME280;36499;46.484;13.832;2023-10-31T08:14:32;91563.06;;;11.54;100.00
12471;BME280;36499;46.484;13.832;2023-10-31T08:16:59;91571.31;;;11.51;100.00
12471;BME280;36499;46.484;13.832;2023-10-31T08:19:26;91603.63;;;11.44;100.00
12471;BME280;36499;46.484;13.832;2023-10-31T08:21:53;91591.56;;;11.61;100.00
12471;BME280;36499;46.484;13.832;2023-10-31T08:24:20;91601.88;;;11.68;100.00
12471;BME280;36499;46.484;13.832;2023-10-31T08:26:47;91626.88;;;11.69;100.00
12471;BME280;36499;46.484;13.832;2023-10-31T08:29:14;91657.22;;;11.86;100.00
12471;BME280;36499;46.484;13.832;2023-10-31T08:31:40;91678.13;;;11.68;100.00
12471;BME280;36499;46.484;13.832;2023-10-31T08:34:07;91656.00;;;11.47;100.00
12471;BME280;36499;46.484;13.832;2023-10-31T08:36:33;91646.78;;;11.63;100.00
12471;BME280;36499;46.484;13.832;2023-10-31T08:39:00;91635.47;;;11.69;100.00
12471;BME280;36499;46.484;13.832;2023-10-31T08:41:28;91649.16;;;11.65;100.00
12471;BME280;36499;46.484;13.832;2023-10-31T08:43:55;91662.28;;;11.70;100.00
12471;BME280;36499;46.484;13.832;2023-10-31T08:46:23;91676.09;;;11.70;100.00
12471;BME280;36499;46.484;13.832;2023-10-31T08:48:50;91683.56;;;11.78;100.00
12471;BME280;36499;46.484;13.832;2023-10-31T08:51:16;91675.66;;;11.85;100.00
12471;BME280;36499;46.484;13.832;2023-10-31T08:53:43;91663.34;;;12.04;100.00
12471;BME280;36499;46.484;13.832;2023-10-31T08:56:10;91649.97;;;12.00;100.00
12471;BME280;36499;46.484;13.832;2023-10-31T08:58:38;91668.88;;;12.07;100.00
12471;BME280;36499;46.484;13.832;2023-10-31T09:01:06;91687.09;;;12.07;100.00
12471;BME280;36499;46.484;13.832;2023-10-31T09:03:32;91683.81;;;11.88;100.00
12471;BME280;36499;46.484;13.832;2023-10-31T09:05:59;91695.13;;;11.94;100.00
12471;BME280;36499;46.484;13.832;2023-10-31T09:08:26;91713.59;;;12.04;100.00
12471;BME280;36499;46.484;13.832;2023-10-31T09:10:52;91715.06;;;12.00;100.00
12471;BME280;36499;46.484;13.832;2023-10-31T09:13:19;91719.03;;;12.03;100.00
12471;BME280;36499;46.484;13.832;2023-10-31T09:15:47;91715.88;;;12.01;100.00
12471;BME280;36499;46.484;13.832;2023-10-31T09:18:15;91723.69;;;12.01;100.00
12471;BME280;36499;46.484;13.832;2023-10-31T09:20:42;91723.53;;;12.07;100.00
12471;BME280;36499;46.484;13.832;2023-10-31T09:26:59;91718.03;;;12.04;100.00
12471;BME280;36499;46.484;13.832;2023-10-31T09:29:25;91716.72;;;11.83;100.00
12471;BME280;36499;46.484;13.832;2023-10-31T09:31:54;91705.97;;;11.79;100.00
12471;BME280;36499;46.484;13.832;2023-10-31T09:34:20;91697.72;;;11.82;100.00
12471;BME280;36499;46.484;13.832;2023-10-31T09:36:47;91690.44;;;11.73;100.00
12471;BME280;36499;46.484;13.832;2023-10-31T09:39:14;91670.31;;;11.68;100.00
12471;BME280;36499;46.484;13.832;2023-10-31T09:41:40;91673.25;;;11.72;100.00
12471;BME280;36499;46.484;13.832;2023-10-31T09:44:07;91680.03;;;11.73;100.00
12471;BME280;36499;46.484;13.832;2023-10-31T09:46:34;91683.34;;;11.68;100.00
12471;BME280;36499;46.484;13.832;2023-10-31T09:49:03;91704.94;;;11.80;100.00
12471;BME280;36499;46.484;13.832;2023-10-31T09:51:30;91695.91;;;11.71;100.00
12471;BME280;36499;46.484;13.832;2023-10-31T09:53:57;91678.78;;;11.75;100.00
12471;BME280;36499;46.484;13.832;2023-10-31T09:56:26;91700.84;;;11.73;100.00
12471;BME280;36499;46.484;13.832;2023-10-31T09:58:59;91691.81;;;11.75;100.00
12471;BME280;36499;46.484;13.832;2023-10-31T10:01:26;91693.97;;;11.67;100.00
12471;BME280;36499;46.484;13.832;2023-10-31T10:03:53;91684.75;;;11.52;100.00
12471;BME280;36499;46.484;13.832;2023-10-31T10:06:21;91684.28;;;11.44;100.00
12471;BME280;36499;46.484;13.832;2023-10-31T10:08:48;91690.06;;;11.46;100.00
12471;BME280;36499;46.484;13.832;2023-10-31T10:11:15;91701.03;;;11.48;100.00
12471;BME280;36499;46.484;13.832;2023-10-31T10:13:42;91704.28;;;11.43;100.00
12471;BME280;36499;46.484;13.832;2023-10-31T10:16:09;91685.41;;;11.36;100.00
12471;BME280;36499;46.484;13.832;2023-10-31T10:18:36;91678.44;;;11.30;100.00
12471;BME280;36499;46.484;13.832;2023-10-31T10:21:05;91687.81;;;11.49;100.00
12471;BME280;36499;46.484;13.832;2023-10-31T10:23:34;91678.16;;;11.38;100.00
12471;BME280;36499;46.484;13.832;2023-10-31T10:26:01;91673.69;;;11.27;100.00
12471;BME280;36499;46.484;13.832;2023-10-31T10:28:28;91694.34;;;11.22;100.00
12471;BME280;36499;46.484;13.832;2023-10-31T10:30:55;91704.75;;;11.22;100.00
12471;BME280;36499;46.484;13.832;2023-10-31T10:33:22;91711.28;;;11.13;100.00
12471;BME280;36499;46.484;13.832;2023-10-31T10:35:49;91702.97;;;11.04;100.00
12471;BME280;36499;46.484;13.832;2023-10-31T10:38:17;91710.09;;;10.97;100.00
12471;BME280;36499;46.484;13.832;2023-10-31T10:40:47;91716.59;;;11.18;100.00
12471;BME280;36499;46.484;13.832;2023-10-31T10:43:20;91718.63;;;11.16;100.00
12471;BME280;36499;46.484;13.832;2023-10-31T10:45:53;91698.91;;;11.26;100.00
12471;BME280;36499;46.484;13.832;2023-10-31T10:48:21;91694.13;;;11.23;100.00
12471;BME280;36499;46.484;13.832;2023-10-31T10:50:52;91690.66;;;11.29;100.00
12471;BME280;36499;46.484;13.832;2023-10-31T10:53:24;91687.34;;;11.22;100.00
12471;BME280;36499;46.484;13.832;2023-10-31T10:56:00;91698.56;;;11.05;100.00
12471;BME280;36499;46.484;13.832;2023-10-31T10:58:34;91706.28;;;11.11;100.00
12471;BME280;36499;46.484;13.832;2023-10-31T11:01:04;91723.13;;;11.09;100.00
12471;BME280;36499;46.484;13.832;2023-10-31T11:03:31;91725.50;;;11.10;100.00
12471;BME280;36499;46.484;13.832;2023-10-31T11:05:59;91723.84;;;11.16;100.00
12471;BME280;36499;46.484;13.832;2023-10-31T11:08:26;91721.22;;;11.16;100.00
12471;BME280;36499;46.484;13.832;2023-10-31T11:10:56;91708.50;;;11.26;100.00
12471;BME280;36499;46.484;13.832;2023-10-31T11:13:24;91704.19;;;11.20;100.00
12471;BME280;36499;46.484;13.832;2023-10-31T11:15:53;91709.75;;;11.05;100.00
12471;BME280;36499;46.484;13.832;2023-10-31T11:18:22;91708.28;;;11.27;100.00
12471;BME280;36499;46.484;13.832;2023-10-31T11:20:50;91718.41;;;11.17;100.00
12471;BME280;36499;46.484;13.832;2023-10-31T11:23:16;91726.94;;;11.06;100.00
12471;BME280;36499;46.484;13.832;2023-10-31T11:25:44;91717.31;;;11.25;100.00
12471;BME280;36499;46.484;13.832;2023-10-31T11:28:13;91720.34;;;11.40;100.00
12471;BME280;36499;46.484;13.832;2023-10-31T11:30:40;91718.09;;;11.44;100.00
12471;BME280;36499;46.484;13.832;2023-10-31T11:33:11;91721.63;;;11.49;100.00
12471;BME280;36499;46.484;13.832;2023-10-31T11:35:39;91725.44;;;11.47;100.00
12471;BME280;36499;46.484;13.832;2023-10-31T11:38:07;91721.13;;;11.41;100.00
12471;BME280;36499;46.484;13.832;2023-10-31T11:40:36;91732.66;;;11.15;100.00
12471;BME280;36499;46.484;13.832;2023-10-31T11:43:04;91727.38;;;11.03;100.00
12471;BME280;36499;46.484;13.832;2023-10-31T11:45:35;91723.84;;;11.16;100.00
12471;BME280;36499;46.484;13.832;2023-10-31T11:48:03;91736.47;;;11.31;100.00
12471;BME280;36499;46.484;13.832;2023-10-31T11:50:31;91746.50;;;11.09;100.00
12471;BME280;36499;46.484;13.832;2023-10-31T11:53:05;91752.53;;;10.91;100.00
12471;BME280;36499;46.484;13.832;2023-10-31T11:55:35;91759.66;;;10.77;100.00
12471;BME280;36499;46.484;13.832;2023-10-31T11:58:19;91781.53;;;10.26;100.00
12471;BME280;36499;46.484;13.832;2023-10-31T12:00:48;91794.44;;;9.77;100.00
12471;BME280;36499;46.484;13.832;2023-10-31T12:03:15;91814.41;;;9.38;100.00
12471;BME280;36499;46.484;13.832;2023-10-31T12:05:51;91827.47;;;9.12;93.85
12471;BME280;36499;46.484;13.832;2023-10-31T12:08:24;91818.50;;;9.08;90.27
12471;BME280;36499;46.484;13.832;2023-10-31T12:10:51;91813.19;;;8.89;95.04
12471;BME280;36499;46.484;13.832;2023-10-31T12:13:18;91832.34;;;8.75;92.17
12471;BME280;36499;46.484;13.832;2023-10-31T12:15:52;91851.88;;;8.65;92.30
12471;BME280;36499;46.484;13.832;2023-10-31T12:18:19;91868.41;;;8.83;93.27
12471;BME280;36499;46.484;13.832;2023-10-31T12:20:50;91874.63;;;8.49;95.68
12471;BME280;36499;46.484;13.832;2023-10-31T12:23:17;91933.56;;;8.54;91.46
12471;BME280;36499;46.484;13.832;2023-10-31T12:25:47;91940.47;;;8.34;90.70
12471;BME280;36499;46.484;13.832;2023-10-31T12:28:17;91963.63;;;8.42;90.34
12471;BME280;36499;46.484;13.832;2023-10-31T12:30:45;91976.19;;;8.51;92.72
12471;BME280;36499;46.484;13.832;2023-10-31T12:33:13;91990.03;;;8.17;93.77
12471;BME280;36499;46.484;13.832;2023-10-31T12:35:41;92019.78;;;7.93;96.00
12471;BME280;36499;46.484;13.832;2023-10-31T12:38:10;92030.19;;;8.07;96.10
12471;BME280;36499;46.484;13.832;2023-10-31T12:40:37;92051.38;;;7.82;97.85
12471;BME280;36499;46.484;13.832;2023-10-31T12:43:04;92074.63;;;7.76;99.80
12471;BME280;36499;46.484;13.832;2023-10-31T12:45:32;92089.00;;;7.57;100.00